Time;durP1;ratioP1;P1;durP2;ratioP2;P2;SDS_P1;SDS_P2;PMS_P1;PMS_P2;Temp;Humidity;BMP_temperature;BMP_pressure;BME280_temperature;BME280_humidity;BME280_pressure;Samples;Min_cycle;Max_cycle;Signal;HPM_P1;HPM_P2
2023/06/24 00:00:40;;;;;;;0.20;0.10;;;;;;;;;;5015651;28;20553;-81
2023/06/24 00:03:07;;;;;;;0.20;0.20;;;;;;;;;;4995721;28;20107;-81
2023/06/24 00:05:33;;;;;;;0.20;0.10;;;;;;;;;;4973939;28;20041;-82
2023/06/24 00:08:01;;;;;;;0.25;0.20;;;;;;;;;;4995666;28;20046;-82
2023/06/24 00:10:29;;;;;;;0.20;0.20;;;;;;;;;;4999511;28;20076;-81
2023/06/24 00:12:55;;;;;;;0.20;0.10;;;;;;;;;;4979255;28;20091;-81
2023/06/24 00:15:21;;;;;;;0.20;0.10;;;;;;;;;;5000241;28;20033;-81
2023/06/24 00:17:48;;;;;;;0.20;0.10;;;;;;;;;;5000778;28;22007;-81
2023/06/24 00:20:14;;;;;;;0.20;0.10;;;;;;;;;;4977273;28;20476;-81
2023/06/24 00:22:43;;;;;;;0.20;0.10;;;;;;;;;;4997139;28;20099;-81
2023/06/24 00:25:09;;;;;;;0.20;0.10;;;;;;;;;;4980553;28;20513;-81
2023/06/24 00:27:35;;;;;;;0.20;0.20;;;;;;;;;;4987422;28;21256;-81
2023/06/24 00:30:01;;;;;;;0.20;0.10;;;;;;;;;;4977684;28;20197;-81
2023/06/24 00:32:27;;;;;;;0.20;0.10;;;;;;;;;;4992816;28;20064;-81
2023/06/24 00:34:57;;;;;;;0.32;0.32;;;;;;;;;;4994706;28;20029;-81
2023/06/24 00:37:23;;;;;;;0.20;0.10;;;;;;;;;;5000575;28;20037;-81
2023/06/24 00:39:49;;;;;;;0.20;0.10;;;;;;;;;;5010747;28;20041;-81
2023/06/24 00:42:16;;;;;;;0.65;0.28;;;;;;;;;;4991705;28;20047;-81
2023/06/24 00:44:42;;;;;;;0.20;0.10;;;;;;;;;;4998350;28;20041;-81
2023/06/24 00:47:08;;;;;;;0.20;0.13;;;;;;;;;;5004902;28;20075;-81
2023/06/24 00:49:34;;;;;;;0.30;0.30;;;;;;;;;;4989046;28;20056;-80
2023/06/24 00:52:00;;;;;;;0.20;0.10;;;;;;;;;;4991075;28;20037;-81
2023/06/24 00:54:30;;;;;;;0.38;0.38;;;;;;;;;;5011388;28;20045;-81
2023/06/24 00:56:56;;;;;;;0.20;0.10;;;;;;;;;;5005383;28;20042;-81
2023/06/24 00:59:23;;;;;;;0.47;0.35;;;;;;;;;;4998503;28;20056;-81
2023/06/24 01:01:52;;;;;;;0.20;0.10;;;;;;;;;;5002501;28;20048;-81
2023/06/24 01:04:19;;;;;;;0.20;0.20;;;;;;;;;;5010142;23;20062;-79
2023/06/24 01:06:46;;;;;;;0.20;0.20;;;;;;;;;;4994918;28;20049;-79
2023/06/24 01:09:13;;;;;;;0.22;0.22;;;;;;;;;;4971081;28;20315;-79
2023/06/24 01:11:39;;;;;;;0.35;0.35;;;;;;;;;;4985171;28;20076;-79
2023/06/24 01:14:05;;;;;;;0.30;0.30;;;;;;;;;;4988979;28;20072;-79
2023/06/24 01:16:41;;;;;;;0.20;0.13;;;;;;;;;;4990963;28;20038;-79
2023/06/24 01:19:26;;;;;;;0.20;0.10;;;;;;;;;;4993693;28;20206;-78
2023/06/24 01:21:58;;;;;;;0.32;0.22;;;;;;;;;;4985049;28;20057;-78
2023/06/24 01:24:33;;;;;;;0.20;0.10;;;;;;;;;;4977549;28;20269;-78
2023/06/24 01:27:14;;;;;;;0.20;0.10;;;;;;;;;;4977930;28;20046;-78
2023/06/24 01:29:51;;;;;;;0.20;0.10;;;;;;;;;;4988362;28;20072;-79
2023/06/24 01:32:29;;;;;;;0.32;0.20;;;;;;;;;;4994599;28;20038;-79
2023/06/24 01:35:04;;;;;;;0.25;0.25;;;;;;;;;;4977521;28;20215;-79
2023/06/24 01:37:30;;;;;;;0.20;0.10;;;;;;;;;;4995961;28;20042;-79
2023/06/24 01:40:09;;;;;;;0.20;0.10;;;;;;;;;;4989123;28;20045;-79
2023/06/24 01:42:37;;;;;;;0.20;0.10;;;;;;;;;;4988518;28;20049;-78
2023/06/24 01:45:04;;;;;;;0.20;0.20;;;;;;;;;;4970997;28;20042;-79
2023/06/24 01:47:31;;;;;;;0.32;0.30;;;;;;;;;;4999818;28;20072;-79
2023/06/24 01:49:59;;;;;;;0.20;0.10;;;;;;;;;;5010434;28;20694;-79
2023/06/24 01:52:28;;;;;;;0.20;0.10;;;;;;;;;;4976919;28;20057;-79
2023/06/24 01:54:55;;;;;;;0.20;0.10;;;;;;;;;;4971130;28;20042;-79
2023/06/24 01:57:23;;;;;;;0.20;0.10;;;;;;;;;;4990021;28;20069;-79
2023/06/24 01:59:51;;;;;;;0.20;0.15;;;;;;;;;;4980545;28;20310;-79
2023/06/24 02:02:20;;;;;;;0.20;0.10;;;;;;;;;;4975787;28;20088;-80
2023/06/24 02:04:46;;;;;;;0.43;0.30;;;;;;;;;;4995591;28;20054;-79
2023/06/24 02:07:13;;;;;;;0.30;0.20;;;;;;;;;;4990036;28;20253;-79
2023/06/24 02:09:40;;;;;;;0.28;0.20;;;;;;;;;;4984210;28;20046;-79
2023/06/24 02:12:06;;;;;;;0.90;0.77;;;;;;;;;;4976154;28;20129;-79
2023/06/24 02:14:33;;;;;;;0.30;0.20;;;;;;;;;;4978157;28;20046;-79
2023/06/24 02:17:01;;;;;;;0.20;0.10;;;;;;;;;;4983412;28;20604;-79
2023/06/24 02:19:29;;;;;;;0.20;0.10;;;;;;;;;;4991114;28;20565;-79
2023/06/24 02:21:57;;;;;;;0.20;0.10;;;;;;;;;;4975894;28;20252;-78
2023/06/24 02:24:23;;;;;;;0.40;0.28;;;;;;;;;;4977944;28;20037;-79
2023/06/24 02:26:50;;;;;;;0.20;0.10;;;;;;;;;;4996526;28;20044;-78
2023/06/24 02:29:17;;;;;;;0.20;0.10;;;;;;;;;;4977728;28;20042;-79
2023/06/24 02:31:43;;;;;;;0.20;0.10;;;;;;;;;;5016342;28;20042;-78
2023/06/24 02:34:09;;;;;;;0.20;0.20;;;;;;;;;;4976282;28;20038;-79
2023/06/24 02:36:35;;;;;;;0.20;0.15;;;;;;;;;;4993020;28;20034;-79
2023/06/24 02:39:01;;;;;;;0.25;0.15;;;;;;;;;;4969338;28;20037;-78
2023/06/24 02:41:27;;;;;;;0.45;0.35;;;;;;;;;;4988888;28;20041;-79
2023/06/24 02:43:53;;;;;;;0.20;0.10;;;;;;;;;;4975840;28;20061;-79
2023/06/24 02:46:21;;;;;;;0.20;0.10;;;;;;;;;;4990913;28;20046;-79
2023/06/24 02:48:48;;;;;;;0.20;0.20;;;;;;;;;;5006909;28;20619;-79
2023/06/24 02:51:15;;;;;;;0.20;0.10;;;;;;;;;;4972997;28;20042;-79
2023/06/24 02:53:41;;;;;;;0.22;0.22;;;;;;;;;;4992260;28;20195;-79
2023/06/24 02:56:09;;;;;;;0.20;0.20;;;;;;;;;;4990165;28;22374;-79
2023/06/24 02:58:38;;;;;;;0.30;0.30;;;;;;;;;;4986169;28;20041;-79
2023/06/24 03:01:06;;;;;;;0.20;0.10;;;;;;;;;;4976255;28;21047;-79
2023/06/24 03:03:33;;;;;;;0.20;0.17;;;;;;;;;;4981156;28;20076;-79
2023/06/24 03:05:59;;;;;;;0.63;0.57;;;;;;;;;;4982113;28;20515;-79
2023/06/24 03:08:26;;;;;;;0.20;0.10;;;;;;;;;;4975988;28;20041;-79
2023/06/24 03:10:56;;;;;;;0.20;0.10;;;;;;;;;;4991585;28;20076;-79
2023/06/24 03:13:22;;;;;;;0.68;0.30;;;;;;;;;;4989411;28;20508;-79
2023/06/24 03:15:48;;;;;;;0.35;0.35;;;;;;;;;;4978173;28;20029;-79
2023/06/24 03:18:15;;;;;;;0.30;0.30;;;;;;;;;;4993556;28;20041;-79
2023/06/24 03:20:41;;;;;;;0.20;0.15;;;;;;;;;;4985454;28;20049;-79
2023/06/24 03:23:07;;;;;;;0.20;0.10;;;;;;;;;;4979997;28;20123;-78
2023/06/24 03:25:33;;;;;;;0.22;0.20;;;;;;;;;;4967523;28;20351;-79
2023/06/24 03:28:07;;;;;;;0.20;0.15;;;;;;;;;;4976810;28;20157;-80
2023/06/24 03:30:33;;;;;;;0.30;0.20;;;;;;;;;;4994686;28;20236;-79
2023/06/24 03:32:59;;;;;;;0.20;0.10;;;;;;;;;;4984382;28;20065;-79
2023/06/24 03:35:25;;;;;;;0.20;0.10;;;;;;;;;;4986705;28;20038;-79
2023/06/24 03:37:51;;;;;;;0.20;0.20;;;;;;;;;;4986769;28;20041;-79
2023/06/24 03:40:17;;;;;;;0.20;0.10;;;;;;;;;;4973723;28;20133;-79
2023/06/24 03:42:43;;;;;;;0.20;0.10;;;;;;;;;;4987894;28;20557;-79
2023/06/24 03:45:10;;;;;;;0.52;0.40;;;;;;;;;;4989321;28;20042;-79
2023/06/24 03:47:36;;;;;;;0.20;0.10;;;;;;;;;;4987250;28;20413;-79
2023/06/24 03:50:02;;;;;;;0.20;0.10;;;;;;;;;;4990095;28;20142;-79
2023/06/24 03:52:28;;;;;;;0.20;0.20;;;;;;;;;;4968252;28;20386;-79
2023/06/24 03:54:54;;;;;;;0.38;0.38;;;;;;;;;;5007338;28;20655;-78
2023/06/24 03:57:20;;;;;;;0.30;0.20;;;;;;;;;;4988804;28;20076;-78
2023/06/24 03:59:46;;;;;;;0.38;0.10;;;;;;;;;;4994024;28;20439;-79
2023/06/24 04:02:13;;;;;;;0.47;0.30;;;;;;;;;;4988578;28;20050;-79
2023/06/24 04:04:39;;;;;;;0.20;0.10;;;;;;;;;;4994804;28;20053;-79
2023/06/24 04:07:06;;;;;;;0.47;0.35;;;;;;;;;;4995792;28;20130;-79
2023/06/24 04:09:35;;;;;;;0.20;0.10;;;;;;;;;;4988166;28;20054;-79
2023/06/24 04:12:01;;;;;;;0.30;0.20;;;;;;;;;;4979606;28;20026;-80
2023/06/24 04:14:28;;;;;;;0.38;0.30;;;;;;;;;;4983781;28;20418;-80
2023/06/24 04:16:54;;;;;;;0.20;0.10;;;;;;;;;;4992961;28;20046;-79
2023/06/24 04:19:20;;;;;;;0.30;0.30;;;;;;;;;;4978155;28;20341;-79
2023/06/24 04:21:46;;;;;;;0.22;0.20;;;;;;;;;;4999927;28;20358;-79
2023/06/24 04:24:12;;;;;;;0.28;0.28;;;;;;;;;;4993749;28;20080;-79
2023/06/24 04:26:38;;;;;;;0.30;0.30;;;;;;;;;;4980126;28;21589;-79
2023/06/24 04:29:04;;;;;;;0.30;0.20;;;;;;;;;;5001515;28;20457;-79
2023/06/24 04:31:30;;;;;;;0.20;0.15;;;;;;;;;;4985169;28;20084;-79
2023/06/24 04:33:56;;;;;;;0.20;0.10;;;;;;;;;;4976770;28;20063;-79
2023/06/24 04:36:22;;;;;;;0.30;0.30;;;;;;;;;;4983849;28;20076;-79
2023/06/24 04:38:48;;;;;;;0.50;0.43;;;;;;;;;;5000112;28;20053;-79
2023/06/24 04:41:15;;;;;;;0.47;0.30;;;;;;;;;;4990509;28;20049;-78
2023/06/24 04:43:41;;;;;;;0.22;0.20;;;;;;;;;;4990365;28;20053;-78
2023/06/24 04:46:07;;;;;;;0.20;0.10;;;;;;;;;;4999143;28;20045;-79
2023/06/24 04:48:33;;;;;;;0.30;0.30;;;;;;;;;;5013773;28;20029;-79
2023/06/24 04:50:59;;;;;;;1.75;0.20;;;;;;;;;;4993472;28;20061;-78
2023/06/24 04:53:25;;;;;;;0.50;0.50;;;;;;;;;;4998678;28;20045;-79
2023/06/24 04:55:51;;;;;;;0.50;0.40;;;;;;;;;;4971968;28;20060;-79
2023/06/24 04:58:17;;;;;;;0.20;0.10;;;;;;;;;;4978605;28;20068;-79
2023/06/24 05:00:43;;;;;;;0.20;0.13;;;;;;;;;;4977579;28;20041;-78
2023/06/24 05:03:09;;;;;;;0.20;0.10;;;;;;;;;;4984565;28;20052;-78
2023/06/24 05:05:35;;;;;;;0.20;0.20;;;;;;;;;;4984304;28;20046;-78
2023/06/24 05:08:01;;;;;;;0.20;0.10;;;;;;;;;;4997835;28;20497;-79
2023/06/24 05:10:27;;;;;;;1.00;0.73;;;;;;;;;;4998858;28;20391;-79
2023/06/24 05:12:54;;;;;;;0.70;0.47;;;;;;;;;;4979399;28;20038;-79
2023/06/24 05:15:20;;;;;;;0.55;0.25;;;;;;;;;;5002237;28;20038;-79
2023/06/24 05:17:46;;;;;;;0.60;0.40;;;;;;;;;;4997118;28;20499;-79
2023/06/24 05:20:12;;;;;;;0.20;0.10;;;;;;;;;;4985867;28;21097;-78
2023/06/24 05:22:38;;;;;;;0.40;0.20;;;;;;;;;;4971613;28;20052;-79
2023/06/24 05:25:04;;;;;;;0.40;0.40;;;;;;;;;;4980220;28;20120;-79
2023/06/24 05:27:30;;;;;;;0.55;0.40;;;;;;;;;;5009877;28;20065;-78
2023/06/24 05:29:56;;;;;;;2.15;0.25;;;;;;;;;;5002388;28;20051;-79
2023/06/24 05:32:22;;;;;;;0.38;0.20;;;;;;;;;;4983801;28;20046;-79
2023/06/24 05:34:48;;;;;;;0.25;0.22;;;;;;;;;;5008183;28;20189;-79
2023/06/24 05:37:14;;;;;;;0.73;0.30;;;;;;;;;;4998351;28;20076;-79
2023/06/24 05:39:41;;;;;;;0.20;0.10;;;;;;;;;;4995411;28;20850;-79
2023/06/24 05:42:07;;;;;;;0.20;0.10;;;;;;;;;;4998492;28;20034;-79
2023/06/24 05:44:33;;;;;;;0.20;0.10;;;;;;;;;;4989675;28;20042;-80
2023/06/24 05:46:59;;;;;;;0.20;0.10;;;;;;;;;;4997373;28;20074;-81
2023/06/24 05:49:25;;;;;;;0.20;0.10;;;;;;;;;;4980172;28;20071;-81
2023/06/24 05:51:51;;;;;;;0.73;0.30;;;;;;;;;;4997876;28;20041;-79
2023/06/24 05:54:17;;;;;;;0.52;0.40;;;;;;;;;;4981757;28;20037;-79
2023/06/24 05:56:43;;;;;;;0.20;0.10;;;;;;;;;;4976802;28;20050;-80
2023/06/24 05:59:10;;;;;;;0.20;0.13;;;;;;;;;;4981268;28;20127;-81
2023/06/24 06:01:36;;;;;;;0.20;0.20;;;;;;;;;;4988802;28;20046;-81
2023/06/24 06:04:02;;;;;;;0.82;0.65;;;;;;;;;;4991285;28;20092;-80
2023/06/24 06:06:28;;;;;;;0.50;0.47;;;;;;;;;;4993984;28;20313;-82
2023/06/24 06:08:54;;;;;;;0.20;0.15;;;;;;;;;;4983338;28;20509;-80
2023/06/24 06:11:20;;;;;;;0.30;0.20;;;;;;;;;;4985184;28;20038;-82
2023/06/24 06:13:46;;;;;;;0.22;0.22;;;;;;;;;;4995027;28;20402;-81
2023/06/24 06:16:12;;;;;;;1.42;0.57;;;;;;;;;;4992241;28;20089;-81
2023/06/24 06:18:38;;;;;;;0.25;0.25;;;;;;;;;;5019531;28;20446;-81
2023/06/24 06:21:04;;;;;;;0.20;0.10;;;;;;;;;;5001807;28;20434;-82
2023/06/24 06:23:30;;;;;;;0.20;0.10;;;;;;;;;;4997118;28;20038;-81
2023/06/24 06:25:56;;;;;;;0.30;0.20;;;;;;;;;;4989232;28;20437;-80
2023/06/24 06:28:22;;;;;;;0.50;0.45;;;;;;;;;;4981713;28;20513;-81
2023/06/24 06:30:48;;;;;;;0.20;0.10;;;;;;;;;;4991040;28;20586;-81
2023/06/24 06:33:14;;;;;;;0.20;0.10;;;;;;;;;;4992733;28;20405;-82
2023/06/24 06:35:40;;;;;;;0.20;0.20;;;;;;;;;;4997862;28;20238;-82
2023/06/24 06:38:06;;;;;;;0.20;0.20;;;;;;;;;;4993782;28;20063;-82
2023/06/24 06:40:32;;;;;;;0.52;0.52;;;;;;;;;;4964145;28;20116;-82
2023/06/24 06:42:59;;;;;;;0.30;0.30;;;;;;;;;;4982146;28;20053;-82
2023/06/24 06:45:25;;;;;;;0.65;0.30;;;;;;;;;;4993079;28;20042;-80
2023/06/24 06:47:51;;;;;;;0.20;0.10;;;;;;;;;;4994447;28;20546;-80
2023/06/24 06:50:17;;;;;;;0.20;0.17;;;;;;;;;;5011268;28;20034;-81
2023/06/24 06:52:43;;;;;;;0.40;0.30;;;;;;;;;;4986941;28;20042;-80
2023/06/24 06:55:09;;;;;;;0.22;0.13;;;;;;;;;;4965596;28;20242;-78
2023/06/24 06:57:35;;;;;;;0.20;0.20;;;;;;;;;;4984499;28;20544;-78
2023/06/24 07:00:01;;;;;;;0.20;0.10;;;;;;;;;;5002673;28;20536;-79
2023/06/24 07:02:27;;;;;;;0.20;0.10;;;;;;;;;;4983748;28;20057;-81
2023/06/24 07:04:53;;;;;;;0.63;0.63;;;;;;;;;;4994855;23;20049;-80
2023/06/24 07:07:19;;;;;;;0.20;0.10;;;;;;;;;;4991465;28;20042;-80
2023/06/24 07:09:46;;;;;;;0.57;0.32;;;;;;;;;;5007656;28;20659;-80
2023/06/24 07:12:13;;;;;;;0.30;0.22;;;;;;;;;;4987753;28;20046;-80
2023/06/24 07:14:39;;;;;;;0.30;0.28;;;;;;;;;;4997453;28;20391;-81
2023/06/24 07:17:05;;;;;;;0.20;0.10;;;;;;;;;;5011650;28;20045;-80
2023/06/24 07:19:31;;;;;;;0.20;0.10;;;;;;;;;;5010223;28;20058;-82
2023/06/24 07:21:57;;;;;;;0.20;0.15;;;;;;;;;;5011046;28;20033;-81
2023/06/24 07:24:23;;;;;;;0.20;0.20;;;;;;;;;;5012702;28;20098;-79
2023/06/24 07:26:49;;;;;;;0.30;0.20;;;;;;;;;;5011042;28;20038;-80
2023/06/24 07:29:15;;;;;;;0.20;0.10;;;;;;;;;;5005941;28;20617;-79
2023/06/24 07:31:41;;;;;;;0.47;0.20;;;;;;;;;;5020342;28;20041;-81
2023/06/24 07:34:07;;;;;;;0.20;0.20;;;;;;;;;;5016942;28;21526;-80
2023/06/24 07:36:34;;;;;;;0.20;0.10;;;;;;;;;;5011370;28;20053;-79
2023/06/24 07:39:00;;;;;;;0.32;0.30;;;;;;;;;;5000224;28;20071;-81
2023/06/24 07:41:26;;;;;;;0.20;0.10;;;;;;;;;;4998215;28;20045;-81
2023/06/24 07:43:52;;;;;;;0.20;0.10;;;;;;;;;;5014433;28;20124;-81
2023/06/24 07:46:18;;;;;;;0.20;0.10;;;;;;;;;;5009721;28;20044;-80
2023/06/24 07:48:44;;;;;;;0.43;0.32;;;;;;;;;;4989821;28;20514;-80
2023/06/24 07:51:10;;;;;;;0.20;0.10;;;;;;;;;;5001423;28;20052;-79
2023/06/24 07:53:36;;;;;;;0.20;0.10;;;;;;;;;;5004713;28;20479;-80
2023/06/24 07:56:02;;;;;;;0.20;0.20;;;;;;;;;;4997930;28;20064;-79
2023/06/24 07:58:28;;;;;;;0.30;0.20;;;;;;;;;;5008603;28;20033;-79
2023/06/24 08:00:54;;;;;;;0.47;0.32;;;;;;;;;;5006802;28;20057;-80
2023/06/24 08:03:21;;;;;;;0.20;0.20;;;;;;;;;;5009111;28;20051;-80
2023/06/24 08:05:49;;;;;;;0.20;0.20;;;;;;;;;;4988302;28;20124;-80
2023/06/24 08:08:15;;;;;;;0.20;0.20;;;;;;;;;;4991968;28;20140;-80
2023/06/24 08:10:41;;;;;;;0.32;0.20;;;;;;;;;;5006616;28;20033;-80
2023/06/24 08:13:07;;;;;;;0.20;0.20;;;;;;;;;;4992701;28;20045;-82
2023/06/24 08:15:33;;;;;;;0.30;0.30;;;;;;;;;;5008792;28;20037;-82
2023/06/24 08:17:59;;;;;;;0.30;0.30;;;;;;;;;;4996535;28;22138;-81
2023/06/24 08:20:26;;;;;;;1.00;0.50;;;;;;;;;;4989674;28;20119;-81
2023/06/24 08:22:52;;;;;;;1.00;0.30;;;;;;;;;;5014052;28;20101;-80
2023/06/24 08:25:18;;;;;;;0.20;0.20;;;;;;;;;;5012989;28;20565;-80
2023/06/24 08:27:46;;;;;;;0.73;0.40;;;;;;;;;;4994338;28;21085;-82
2023/06/24 08:30:12;;;;;;;0.43;0.40;;;;;;;;;;4993552;28;20049;-80
2023/06/24 08:32:40;;;;;;;0.30;0.20;;;;;;;;;;4989459;28;20125;-82
2023/06/24 08:35:06;;;;;;;0.20;0.10;;;;;;;;;;5008043;28;20018;-80
2023/06/24 08:37:32;;;;;;;0.20;0.10;;;;;;;;;;5022907;28;20502;-81
2023/06/24 08:39:58;;;;;;;0.20;0.20;;;;;;;;;;5015689;28;20406;-81
2023/06/24 08:42:24;;;;;;;0.20;0.10;;;;;;;;;;5011459;28;20048;-81
2023/06/24 08:44:50;;;;;;;0.52;0.30;;;;;;;;;;5016692;28;20055;-82
2023/06/24 08:47:17;;;;;;;0.60;0.40;;;;;;;;;;5012066;28;20072;-83
2023/06/24 08:49:53;;;;;;;0.20;0.10;;;;;;;;;;5010855;28;20116;-81
2023/06/24 08:52:19;;;;;;;0.28;0.17;;;;;;;;;;5038561;28;20098;-83
2023/06/24 08:54:48;;;;;;;0.20;0.20;;;;;;;;;;5018799;28;20026;-84
2023/06/24 08:57:15;;;;;;;0.20;0.10;;;;;;;;;;5033719;28;20049;-83
2023/06/24 08:59:41;;;;;;;0.28;0.17;;;;;;;;;;5014696;28;20041;-81
2023/06/24 09:02:08;;;;;;;0.68;0.28;;;;;;;;;;5033213;28;20037;-81
2023/06/24 09:04:34;;;;;;;0.28;0.22;;;;;;;;;;5007782;28;20034;-80
2023/06/24 09:07:00;;;;;;;0.30;0.20;;;;;;;;;;5015974;28;20306;-80
2023/06/24 09:09:28;;;;;;;0.20;0.20;;;;;;;;;;5029851;28;20056;-81
2023/06/24 09:11:55;;;;;;;0.25;0.20;;;;;;;;;;5010447;28;20045;-83
2023/06/24 09:14:21;;;;;;;0.25;0.13;;;;;;;;;;5012457;28;20124;-81
2023/06/24 09:16:53;;;;;;;0.73;0.28;;;;;;;;;;5027203;28;20080;-81
2023/06/24 09:19:29;;;;;;;0.20;0.20;;;;;;;;;;5026496;28;20037;-80
2023/06/24 09:21:55;;;;;;;0.20;0.10;;;;;;;;;;5028714;28;20049;-83
2023/06/24 09:24:21;;;;;;;0.20;0.20;;;;;;;;;;5024692;28;20120;-81
2023/06/24 09:26:47;;;;;;;0.30;0.20;;;;;;;;;;5029941;28;20074;-81
2023/06/24 09:29:17;;;;;;;0.20;0.10;;;;;;;;;;5013324;28;20077;-81
2023/06/24 09:31:52;;;;;;;0.20;0.10;;;;;;;;;;5031141;28;20033;-80
2023/06/24 09:34:19;;;;;;;0.25;0.17;;;;;;;;;;5010477;28;20045;-81
2023/06/24 09:36:45;;;;;;;0.20;0.10;;;;;;;;;;5025886;28;20052;-82
2023/06/24 09:39:12;;;;;;;0.28;0.10;;;;;;;;;;5026522;28;20047;-81
2023/06/24 09:41:42;;;;;;;0.40;0.32;;;;;;;;;;5022292;28;20073;-80
2023/06/24 09:44:09;;;;;;;0.90;0.13;;;;;;;;;;5024639;28;20053;-81
2023/06/24 09:46:36;;;;;;;0.20;0.10;;;;;;;;;;5011367;28;20049;-81
2023/06/24 09:49:02;;;;;;;0.20;0.10;;;;;;;;;;5025238;28;20602;-80
2023/06/24 09:51:28;;;;;;;0.20;0.15;;;;;;;;;;5022624;28;20301;-82
2023/06/24 09:53:56;;;;;;;0.20;0.10;;;;;;;;;;5011095;28;20391;-85
2023/06/24 09:56:23;;;;;;;0.20;0.20;;;;;;;;;;5018905;28;20311;-82
2023/06/24 09:58:50;;;;;;;0.95;0.20;;;;;;;;;;5021952;28;20065;-82
2023/06/24 10:01:17;;;;;;;0.20;0.10;;;;;;;;;;5020645;28;20037;-81
2023/06/24 10:03:43;;;;;;;0.20;0.20;;;;;;;;;;5027497;28;20571;-82
2023/06/24 10:06:09;;;;;;;0.57;0.20;;;;;;;;;;5022442;28;20461;-82
2023/06/24 10:08:35;;;;;;;0.20;0.17;;;;;;;;;;5030646;28;20037;-83
2023/06/24 10:11:02;;;;;;;0.20;0.20;;;;;;;;;;5028213;28;20041;-81
2023/06/24 10:13:28;;;;;;;0.20;0.10;;;;;;;;;;5023012;28;20045;-82
2023/06/24 10:15:55;;;;;;;0.47;0.40;;;;;;;;;;5010150;28;20571;-81
2023/06/24 10:18:36;;;;;;;0.60;0.30;;;;;;;;;;5019314;28;20051;-81
2023/06/24 10:21:03;;;;;;;0.20;0.20;;;;;;;;;;5042032;28;20029;-81
2023/06/24 10:23:34;;;;;;;0.47;0.30;;;;;;;;;;5010479;28;20296;-80
2023/06/24 10:26:00;;;;;;;0.30;0.20;;;;;;;;;;5044455;28;20125;-80
2023/06/24 10:28:26;;;;;;;0.30;0.10;;;;;;;;;;5007918;28;20052;-82
2023/06/24 10:30:56;;;;;;;0.38;0.35;;;;;;;;;;5025440;28;20036;-82
2023/06/24 10:33:23;;;;;;;0.20;0.20;;;;;;;;;;5022800;28;20581;-83
2023/06/24 10:35:50;;;;;;;0.38;0.20;;;;;;;;;;5000533;28;20073;-80
2023/06/24 10:38:16;;;;;;;0.20;0.13;;;;;;;;;;5025681;28;20107;-81
2023/06/24 10:40:43;;;;;;;0.20;0.10;;;;;;;;;;5007308;28;20136;-81
2023/06/24 10:43:29;;;;;;;0.20;0.10;;;;;;;;;;5012843;28;20072;-82
2023/06/24 10:45:59;;;;;;;0.20;0.10;;;;;;;;;;5019924;28;20091;-83
2023/06/24 10:48:25;;;;;;;0.25;0.17;;;;;;;;;;5003087;28;20041;-82
2023/06/24 10:50:51;;;;;;;0.20;0.10;;;;;;;;;;5004744;28;20569;-81
2023/06/24 10:53:18;;;;;;;0.20;0.20;;;;;;;;;;5039779;28;20099;-81
2023/06/24 10:55:45;;;;;;;0.20;0.10;;;;;;;;;;5020369;28;20044;-80
2023/06/24 10:58:14;;;;;;;0.20;0.20;;;;;;;;;;5028704;28;20403;-80
2023/06/24 11:00:40;;;;;;;0.20;0.10;;;;;;;;;;5022149;28;20059;-82
2023/06/24 11:03:10;;;;;;;0.20;0.13;;;;;;;;;;5005963;28;20045;-84
2023/06/24 11:05:39;;;;;;;0.20;0.10;;;;;;;;;;5000024;28;20402;-79
2023/06/24 11:08:06;;;;;;;0.20;0.10;;;;;;;;;;4999498;28;20050;-81
2023/06/24 11:10:32;;;;;;;0.30;0.20;;;;;;;;;;5014429;28;20041;-81
2023/06/24 11:12:58;;;;;;;0.20;0.10;;;;;;;;;;5001303;28;20048;-79
2023/06/24 11:15:25;;;;;;;0.20;0.10;;;;;;;;;;5004968;28;20037;-83
2023/06/24 11:17:52;;;;;;;0.20;0.10;;;;;;;;;;5004239;28;20045;-81
2023/06/24 11:20:18;;;;;;;0.20;0.10;;;;;;;;;;5019653;28;20049;-82
2023/06/24 11:22:44;;;;;;;0.20;0.10;;;;;;;;;;5024819;28;20048;-85
2023/06/24 11:25:24;;;;;;;0.20;0.20;;;;;;;;;;5021641;28;20445;-83
2023/06/24 11:27:53;;;;;;;0.20;0.20;;;;;;;;;;5015432;28;20050;-82
2023/06/24 11:30:19;;;;;;;0.40;0.40;;;;;;;;;;5010175;28;20059;-80
2023/06/24 11:32:45;;;;;;;0.30;0.30;;;;;;;;;;5008432;28;20048;-80
2023/06/24 11:35:14;;;;;;;0.45;0.28;;;;;;;;;;5023571;28;20080;-80
2023/06/24 11:37:44;;;;;;;0.20;0.10;;;;;;;;;;5029117;28;20037;-78
2023/06/24 11:40:11;;;;;;;0.20;0.20;;;;;;;;;;5032689;28;20077;-80
2023/06/24 11:42:41;;;;;;;0.20;0.10;;;;;;;;;;5024176;28;20042;-80
2023/06/24 11:45:08;;;;;;;0.20;0.10;;;;;;;;;;5041741;28;20046;-81
2023/06/24 11:47:40;;;;;;;0.20;0.10;;;;;;;;;;5018376;28;20045;-80
2023/06/24 11:50:07;;;;;;;0.20;0.20;;;;;;;;;;5014816;28;20042;-80
2023/06/24 11:52:36;;;;;;;0.20;0.10;;;;;;;;;;5016127;28;20048;-80
2023/06/24 11:55:03;;;;;;;0.20;0.10;;;;;;;;;;5021789;28;20065;-82
2023/06/24 11:57:51;;;;;;;0.20;0.10;;;;;;;;;;4999110;28;20075;-83
2023/06/24 12:00:20;;;;;;;0.20;0.10;;;;;;;;;;5014423;28;20494;-79
2023/06/24 12:02:46;;;;;;;0.20;0.20;;;;;;;;;;5013410;28;20076;-83
2023/06/24 12:05:12;;;;;;;0.20;0.10;;;;;;;;;;5011932;28;20771;-80
2023/06/24 12:07:38;;;;;;;0.20;0.10;;;;;;;;;;5010190;28;20048;-84
2023/06/24 12:10:05;;;;;;;0.20;0.10;;;;;;;;;;5007524;28;20289;-82
2023/06/24 12:12:31;;;;;;;0.20;0.10;;;;;;;;;;5010780;28;20056;-80
2023/06/24 12:14:57;;;;;;;0.20;0.10;;;;;;;;;;5008380;28;20034;-82
2023/06/24 12:17:23;;;;;;;0.30;0.25;;;;;;;;;;4999031;28;20048;-81
2023/06/24 12:19:49;;;;;;;0.20;0.13;;;;;;;;;;5013214;28;22156;-81
2023/06/24 12:22:15;;;;;;;0.20;0.10;;;;;;;;;;5004324;28;20056;-83
2023/06/24 12:24:41;;;;;;;0.20;0.10;;;;;;;;;;5010648;28;20041;-82
2023/06/24 12:27:07;;;;;;;0.20;0.10;;;;;;;;;;5015793;28;20045;-82
2023/06/24 12:29:33;;;;;;;0.20;0.10;;;;;;;;;;5002972;28;20519;-83
2023/06/24 12:31:59;;;;;;;0.20;0.10;;;;;;;;;;5019342;28;20589;-82
2023/06/24 12:34:25;;;;;;;0.20;0.10;;;;;;;;;;5020412;28;20126;-82
2023/06/24 12:36:51;;;;;;;0.20;0.10;;;;;;;;;;5018740;28;20163;-81
2023/06/24 12:39:17;;;;;;;0.38;0.20;;;;;;;;;;5023453;28;20096;-81
2023/06/24 12:41:43;;;;;;;0.20;0.10;;;;;;;;;;5001890;28;20105;-80
2023/06/24 12:44:09;;;;;;;0.35;0.25;;;;;;;;;;5007495;28;20042;-83
2023/06/24 12:46:35;;;;;;;0.25;0.20;;;;;;;;;;5010989;28;20069;-82
2023/06/24 12:49:01;;;;;;;0.90;0.30;;;;;;;;;;5006158;28;20046;-81
2023/06/24 12:51:27;;;;;;;0.20;0.10;;;;;;;;;;5008648;28;20038;-83
2023/06/24 12:53:53;;;;;;;0.20;0.10;;;;;;;;;;5023038;28;20461;-82
2023/06/24 12:56:19;;;;;;;0.20;0.10;;;;;;;;;;5027489;28;20029;-81
2023/06/24 12:58:45;;;;;;;0.20;0.17;;;;;;;;;;5005721;28;20045;-81
2023/06/24 13:01:11;;;;;;;0.55;0.22;;;;;;;;;;5005942;28;20143;-84
2023/06/24 13:03:37;;;;;;;0.20;0.10;;;;;;;;;;5018141;22;20041;-80
2023/06/24 13:06:04;;;;;;;0.22;0.20;;;;;;;;;;5023077;28;20045;-83
2023/06/24 13:08:30;;;;;;;0.40;0.22;;;;;;;;;;5027734;28;20038;-82
2023/06/24 13:10:56;;;;;;;0.20;0.10;;;;;;;;;;5001345;28;20038;-84
2023/06/24 13:13:22;;;;;;;0.20;0.10;;;;;;;;;;5005664;28;20116;-82
2023/06/24 13:15:48;;;;;;;0.20;0.10;;;;;;;;;;5020251;28;20582;-82
2023/06/24 13:18:15;;;;;;;0.20;0.10;;;;;;;;;;5021753;28;20529;-82
2023/06/24 13:20:41;;;;;;;0.45;0.30;;;;;;;;;;5029172;28;20045;-82
2023/06/24 13:23:07;;;;;;;0.20;0.10;;;;;;;;;;5005978;28;20057;-81
2023/06/24 13:25:34;;;;;;;0.20;0.20;;;;;;;;;;5004822;28;20083;-80
2023/06/24 13:28:00;;;;;;;0.40;0.28;;;;;;;;;;5021539;28;20061;-82
2023/06/24 13:30:26;;;;;;;0.20;0.10;;;;;;;;;;5006737;28;20045;-82
2023/06/24 13:32:52;;;;;;;0.20;0.10;;;;;;;;;;5004345;28;20091;-83
2023/06/24 13:35:18;;;;;;;0.20;0.10;;;;;;;;;;4997508;28;20110;-82
2023/06/24 13:37:44;;;;;;;0.20;0.10;;;;;;;;;;5020935;28;20061;-84
2023/06/24 13:40:11;;;;;;;0.20;0.10;;;;;;;;;;5010965;28;20501;-81
2023/06/24 13:42:37;;;;;;;0.20;0.10;;;;;;;;;;5017928;28;20124;-83
2023/06/24 13:45:03;;;;;;;0.20;0.10;;;;;;;;;;5025101;28;20399;-81
2023/06/24 13:47:29;;;;;;;0.20;0.20;;;;;;;;;;5021088;28;20110;-81
2023/06/24 13:49:55;;;;;;;0.20;0.10;;;;;;;;;;5006298;28;20164;-79
2023/06/24 13:52:21;;;;;;;0.20;0.10;;;;;;;;;;5025885;28;20037;-81
2023/06/24 13:54:47;;;;;;;0.22;0.20;;;;;;;;;;5029499;28;20874;-82
2023/06/24 13:57:15;;;;;;;0.20;0.10;;;;;;;;;;5023889;28;20034;-80
2023/06/24 13:59:41;;;;;;;0.30;0.20;;;;;;;;;;5006060;28;20041;-82
2023/06/24 14:02:08;;;;;;;0.20;0.10;;;;;;;;;;5027859;28;20301;-81
2023/06/24 14:04:35;;;;;;;0.20;0.10;;;;;;;;;;5000355;28;21626;-80
2023/06/24 14:07:02;;;;;;;0.20;0.10;;;;;;;;;;5019189;28;20041;-82
2023/06/24 14:09:28;;;;;;;0.20;0.20;;;;;;;;;;5021885;28;20045;-81
2023/06/24 14:11:55;;;;;;;0.20;0.10;;;;;;;;;;5005632;28;20033;-82
2023/06/24 14:14:21;;;;;;;0.20;0.10;;;;;;;;;;4982779;28;21128;-82
2023/06/24 14:16:47;;;;;;;0.20;0.10;;;;;;;;;;4993882;28;20425;-82
2023/06/24 14:19:13;;;;;;;0.45;0.20;;;;;;;;;;4993838;28;20049;-82
2023/06/24 14:21:39;;;;;;;0.20;0.10;;;;;;;;;;5001424;28;20077;-81
2023/06/24 14:24:08;;;;;;;0.20;0.10;;;;;;;;;;5001371;28;20123;-81
2023/06/24 14:26:34;;;;;;;0.20;0.10;;;;;;;;;;5034500;28;20042;-83
2023/06/24 14:29:01;;;;;;;0.20;0.20;;;;;;;;;;5007924;28;20041;-82
2023/06/24 14:31:27;;;;;;;0.22;0.17;;;;;;;;;;5006508;28;20464;-83
2023/06/24 14:33:53;;;;;;;0.20;0.13;;;;;;;;;;5001652;28;20038;-83
2023/06/24 14:36:19;;;;;;;0.20;0.10;;;;;;;;;;5012320;28;20044;-81
2023/06/24 14:38:45;;;;;;;0.20;0.10;;;;;;;;;;5015352;28;20041;-81
2023/06/24 14:41:11;;;;;;;0.20;0.10;;;;;;;;;;5007472;28;20046;-81